To NAV CANADA Home Page Login to a new session Search on AWWS site Disclaimer Vers la page française équivalente Tips FAQ What's new on the site To the Forecasts and Observations / NOTAM section To "File a Flight Plan" website Publications and other links Update of the User's profile FIC Telephone Numbers My Weather Data Folder Route Weather Data Regional Weather Data Local Weather Data To the Forecasts and Observations / NOTAM section
Request Generated 03/19/2019 at 23:45:46 UTC . Weather information available at that time is displayed.

METAR/TAF

DELINE/NT    

METAR CYWJ 192300Z 30008KT 40SM FEW180 14/M03 A2967 RMK AC1 AC TR LAST STFD OBS/NXT 201300UTC SLP060 DENSITY ALT 1100FT=
METAR CYWJ 192200Z 27006KT 40SM FEW180 14/M03 A2967 RMK AC1 AC TR SLP058 DENSITY ALT 1100FT=
METAR CYWJ 192100Z VRB02KT 40SM FEW180 FEW230 10/M03 A2966 RMK AC1CS1 AC TR CS TR SLP057=

*** REMARK        : Forecast period has ended; this was the last TAF issued
*** REMARQUE : La période de prévision est échue; ceci était le dernier TAF qui a été émis
TAF CYWJ 191738Z 1918/1923 12005KT P6SM FEW100 BKN190
BECMG 1918/1920 28012KT
RMK NXT FCST WILL BE ISSUED AT 201415Z=
Your time UTC time
Weather data provided by Environment Canada and NAV CANADA